Big Bear Station Historical Data
Daily Summary for July 5, 2019 Units:  English    Metric   Both
Next Day »
Daily Weekly Monthly Yearly Custom
  High: Low: Average:
Temperature: 79 °F 42.1 °F 59.8 °F
Dew Point: 49.3 °F 25.9 °F 36.6 °F
Humidity: 78% 22% 46%
Wind Speed: 0mph 0mph 0mph
Wind Gust: -999mph - -
Wind- -
Pressure: 23.63 in 23.55 in -
Precipitation: 0 in    
Historical Graphs
 
 
Tabular Data for July 5, 2019
Time Temperature Dew Point Pressure Wind Wind Speed Wind Gust Humidity Rainfall Rate (Hourly)
00:06 48.4 °F 30.6 °F 23.56 in Calm   -999 mph 50% 0.00 in
00:22 48.2 °F 30.4 °F 23.56 in Calm   -999 mph 50% 0.00 in
00:37 47.7 °F 28.4 °F 23.56 in Calm   -999 mph 47% 0.00 in
00:52 47.3 °F 29.6 °F 23.56 in Calm   -999 mph 50% 0.00 in
01:07 47.1 °F 31.8 °F 23.56 in Calm   -999 mph 55% 0.00 in
01:22 46.8 °F 33.2 °F 23.56 in Calm   -999 mph 59% 0.00 in
01:38 46.6 °F 33 °F 23.56 in Calm   -999 mph 59% 0.00 in
01:53 46.2 °F 33.1 °F 23.55 in Calm   -999 mph 60% 0.00 in
02:08 45.9 °F 33.6 °F 23.55 in Calm   -999 mph 62% 0.00 in
02:23 45.9 °F 34 °F 23.55 in Calm   -999 mph 63% 0.00 in
02:39 45.3 °F 34.6 °F 23.55 in Calm   -999 mph 66% 0.00 in
02:54 45.1 °F 34.4 °F 23.55 in Calm   -999 mph 66% 0.00 in
03:09 45 °F 33.9 °F 23.55 in Calm   -999 mph 65% 0.00 in
03:24 44.4 °F 33.8 °F 23.55 in Calm   -999 mph 66% 0.00 in
03:39 44.4 °F 34.5 °F 23.55 in Calm   -999 mph 68% 0.00 in
03:55 43.9 °F 34 °F 23.55 in Calm   -999 mph 68% 0.00 in
04:10 43.5 °F 33.6 °F 23.56 in Calm   -999 mph 68% 0.00 in
04:25 43.3 °F 32.3 °F 23.55 in Calm   -999 mph 65% 0.00 in
04:40 43.2 °F 33.7 °F 23.56 in Calm   -999 mph 69% 0.00 in
04:55 42.8 °F 34 °F 23.56 in Calm   -999 mph 71% 0.00 in
05:11 42.4 °F 34.4 °F 23.56 in Calm   -999 mph 73% 0.00 in
05:26 42.4 °F 34.4 °F 23.56 in Calm   -999 mph 73% 0.00 in
05:41 42.1 °F 34.1 °F 23.57 in Calm   -999 mph 73% 0.00 in
05:56 42.3 °F 34.6 °F 23.57 in Calm   -999 mph 74% 0.00 in
06:11 42.3 °F 35.3 °F 23.57 in Calm   -999 mph 76% 0.00 in
06:27 42.4 °F 35.4 °F 23.57 in Calm   -999 mph 76% 0.00 in
06:42 42.6 °F 36.2 °F 23.57 in Calm   -999 mph 78% 0.00 in
06:57 42.8 °F 36.1 °F 23.57 in Calm   -999 mph 77% 0.00 in
07:12 43.5 °F 36.4 °F 23.58 in Calm   -999 mph 76% 0.00 in
07:27 44.4 °F 36.6 °F 23.58 in Calm   -999 mph 74% 0.00 in
07:43 45.3 °F 37.5 °F 23.58 in Calm   -999 mph 74% 0.00 in
07:58 47.3 °F 38 °F 23.58 in Calm   -999 mph 70% 0.00 in
08:13 49.3 °F 39.9 °F 23.59 in Calm   -999 mph 70% 0.00 in
08:28 51.4 °F 40.4 °F 23.59 in Calm   -999 mph 66% 0.00 in
08:43 52.9 °F 41.5 °F 23.59 in Calm   -999 mph 65% 0.00 in
08:59 55.8 °F 36.9 °F 23.59 in Calm   -999 mph 49% 0.00 in
09:14 58.5 °F 37.8 °F 23.59 in Calm   -999 mph 46% 0.00 in
09:29 60.4 °F 39.5 °F 23.59 in Calm   -999 mph 46% 0.00 in
09:44 63.3 °F 34.4 °F 23.59 in Calm   -999 mph 34% 0.00 in
10:00 65.7 °F 34.2 °F 23.59 in Calm   -999 mph 31% 0.00 in
10:15 67.5 °F 30.4 °F 23.59 in Calm   -999 mph 25% 0.00 in
10:30 68.5 °F 36.7 °F 23.60 in Calm   -999 mph 31% 0.00 in
10:45 69.1 °F 34.6 °F 23.60 in Calm   -999 mph 28% 0.00 in
11:00 70.2 °F 29.6 °F 23.60 in Calm   -999 mph 22% 0.00 in
11:16 71.1 °F 34.5 °F 23.60 in Calm   -999 mph 26% 0.00 in
11:31 72.3 °F 35.5 °F 23.60 in Calm   -999 mph 26% 0.00 in
11:46 73.4 °F 37.4 °F 23.60 in Calm   -999 mph 27% 0.00 in
12:01 73.9 °F 38.7 °F 23.61 in Calm   -999 mph 28% 0.00 in
12:16 75.6 °F 36.3 °F 23.61 in Calm   -999 mph 24% 0.00 in
12:32 76.1 °F 36.7 °F 23.61 in Calm   -999 mph 24% 0.00 in
12:47 77.2 °F 38.7 °F 23.61 in Calm   -999 mph 25% 0.00 in
13:02 78.3 °F 40.6 °F 23.61 in Calm   -999 mph 26% 0.00 in
13:17 78.4 °F 39.7 °F 23.61 in Calm   -999 mph 25% 0.00 in
13:32 78.3 °F 41.6 °F 23.61 in Calm   -999 mph 27% 0.00 in
13:48 78.8 °F 40 °F 23.61 in Calm   -999 mph 25% 0.00 in
14:03 79 °F 43.1 °F 23.61 in Calm   -999 mph 28% 0.00 in
14:18 78.4 °F 43.5 °F 23.61 in Calm   -999 mph 29% 0.00 in
14:33 78.6 °F 44.6 °F 23.60 in Calm   -999 mph 30% 0.00 in
14:48 77.4 °F 45.2 °F 23.60 in Calm   -999 mph 32% 0.00 in
15:04 77.9 °F 43.1 °F 23.60 in Calm   -999 mph 29% 0.00 in
15:19 77.4 °F 41.7 °F 23.60 in Calm   -999 mph 28% 0.00 in
15:34 77.4 °F 41.7 °F 23.60 in Calm   -999 mph 28% 0.00 in
15:50 76.8 °F 41.2 °F 23.60 in Calm   -999 mph 28% 0.00 in
16:05 76.3 °F 45.1 °F 23.60 in Calm   -999 mph 33% 0.00 in
16:20 76.1 °F 43.3 °F 23.60 in Calm   -999 mph 31% 0.00 in
16:35 76.1 °F 41.5 °F 23.60 in Calm   -999 mph 29% 0.00 in
16:50 77.4 °F 42.7 °F 23.60 in Calm   -999 mph 29% 0.00 in
17:06 77 °F 43.2 °F 23.59 in Calm   -999 mph 30% 0.00 in
17:21 76.8 °F 42.1 °F 23.59 in Calm   -999 mph 29% 0.00 in
17:36 77.2 °F 40.6 °F 23.59 in Calm   -999 mph 27% 0.00 in
17:51 76.1 °F 47.2 °F 23.59 in Calm   -999 mph 36% 0.00 in
18:07 74.3 °F 47.1 °F 23.59 in Calm   -999 mph 38% 0.00 in
18:22 74.5 °F 49.3 °F 23.59 in Calm   -999 mph 41% 0.00 in
18:37 72.7 °F 47.6 °F 23.60 in Calm   -999 mph 41% 0.00 in
18:52 72.5 °F 40.1 °F 23.60 in Calm   -999 mph 31% 0.00 in
19:07 72.1 °F 40.6 °F 23.60 in Calm   -999 mph 32% 0.00 in
19:23 70.2 °F 42.7 °F 23.60 in Calm   -999 mph 37% 0.00 in
19:38 67.3 °F 40.8 °F 23.60 in Calm   -999 mph 38% 0.00 in
19:53 64.9 °F 38.7 °F 23.60 in Calm   -999 mph 38% 0.00 in
20:08 63.5 °F 33.9 °F 23.60 in Calm   -999 mph 33% 0.00 in
20:23 62.2 °F 35.6 °F 23.60 in Calm   -999 mph 37% 0.00 in
20:39 59.5 °F 37.6 °F 23.60 in Calm   -999 mph 44% 0.00 in
20:54 58.1 °F 35.1 °F 23.61 in Calm   -999 mph 42% 0.00 in
21:09 57 °F 33.5 °F 23.61 in Calm   -999 mph 41% 0.00 in
21:24 55.4 °F 32.7 °F 23.61 in Calm   -999 mph 42% 0.00 in
21:39 54.9 °F 28.4 °F 23.62 in Calm   -999 mph 36% 0.00 in
21:55 54.1 °F 27.7 °F 23.62 in Calm   -999 mph 36% 0.00 in
22:10 53.6 °F 30.5 °F 23.62 in Calm   -999 mph 41% 0.00 in
22:25 52.7 °F 31.4 °F 23.62 in Calm   -999 mph 44% 0.00 in
22:40 52 °F 25.9 °F 23.63 in Calm   -999 mph 36% 0.00 in
22:55 52 °F 28.4 °F 23.63 in Calm   -999 mph 40% 0.00 in
23:11 51.4 °F 30.8 °F 23.63 in Calm   -999 mph 45% 0.00 in
23:26 50.9 °F 30.8 °F 23.63 in Calm   -999 mph 46% 0.00 in
23:41 50.2 °F 29.1 °F 23.63 in Calm   -999 mph 44% 0.00 in
23:56 50 °F 26.6 °F 23.63 in Calm   -999 mph 40% 0.00 in
Big Bear CA Weather